SABE/AEP METAR and TAF weather

Enter ICAO airport designator
Station Type Date Time Source
SABE METAR 2021/03/06 02:00 UTC NOAA

SABE 060200Z 14007KT 090V180 CAVOK 21/11 Q1013 NOSIG


Station Type Date Time Source
SABE Decoded METAR 2021/03/06 02:00 UTC NOAA

Aeroparque Bs. As. Aerodrome, Argentina (SABE) 34-34S 058-25W 6M
Mar 05, 2021 - 09:00 PM EST / 2021.03.06 0200 UTC
Wind: from the SE (140 degrees) at 8 MPH (7 KT) (direction variable):0
Visibility: greater than 7 mile(s):0
Temperature: 69 F (21 C)
Dew Point: 51 F (11 C)
Relative Humidity: 52%
Pressure (altimeter): 29.91 in. Hg (1013 hPa)
ob: SABE 060200Z 14007KT 090V180 CAVOK 21/11 Q1013 NOSIG
cycle: 2

Station Type Date Time Source
SABE TAF 2021/03/06 00:00 UTC NOAA

TAF SABE 052300Z 0600/0624 12010KT CAVOK TX25/0619Z TN17/0609Z
BECMG 0606/0608 14015KT
BECMG 0617/0619 07010KT

Example: see airport list